createdAt,value
2018-06-02T00:00:53.963Z,0
2018-06-02T00:02:02.827Z,0
2018-06-02T00:03:11.692Z,0
2018-06-02T00:04:20.555Z,0
2018-06-02T00:05:29.419Z,0
2018-06-02T00:06:38.665Z,0
2018-06-02T00:07:47.527Z,0
2018-06-02T00:08:56.389Z,0
2018-06-02T00:10:05.536Z,0
2018-06-02T00:11:14.723Z,0
2018-06-02T00:12:23.731Z,0
2018-06-02T00:13:32.597Z,0
2018-06-02T00:14:44.759Z,0
2018-06-02T00:15:54.181Z,0
2018-06-02T00:17:03.045Z,0
2018-06-02T00:18:12.194Z,0
2018-06-02T00:19:21.059Z,0
2018-06-02T00:20:29.922Z,0
2018-06-02T00:21:38.787Z,0
2018-06-02T00:22:47.649Z,0
2018-06-02T00:23:56.662Z,0
2018-06-02T00:25:05.525Z,0
2018-06-02T00:26:14.390Z,0
2018-06-02T00:27:23.250Z,0
2018-06-02T00:28:32.395Z,0
2018-06-02T00:29:41.355Z,0
2018-06-02T00:30:50.322Z,0
2018-06-02T00:31:59.184Z,0
2018-06-02T00:33:08.045Z,0
2018-06-02T00:34:16.909Z,0
2018-06-02T00:35:25.874Z,0
2018-06-02T00:36:34.736Z,0
2018-06-02T00:37:43.597Z,0
2018-06-02T00:38:52.461Z,0
2018-06-02T00:40:01.330Z,0
2018-06-02T00:41:10.343Z,0
2018-06-02T00:42:19.208Z,0
2018-06-02T00:43:28.346Z,0
2018-06-02T00:44:37.207Z,0
2018-06-02T00:45:46.072Z,0
2018-06-02T00:46:55.311Z,0
2018-06-02T00:48:04.173Z,0
2018-06-02T00:49:13.043Z,0
2018-06-02T00:50:21.906Z,0
2018-06-02T00:51:31.071Z,0
2018-06-02T00:52:40.019Z,0
2018-06-02T00:53:49.161Z,0
2018-06-02T00:54:58.023Z,0
2018-06-02T00:56:06.884Z,0
2018-06-02T00:57:16.027Z,0
2018-06-02T00:58:25.239Z,0
2018-06-02T00:59:34.103Z,0
2018-06-02T01:00:42.965Z,0
2018-06-02T01:01:51.829Z,0
2018-06-02T01:03:00.969Z,0
2018-06-02T01:04:10.734Z,0
2018-06-02T01:05:19.602Z,0
2018-06-02T01:06:28.461Z,0
2018-06-02T01:07:37.327Z,0
2018-06-02T01:08:46.186Z,0
2018-06-02T01:09:55.100Z,0
2018-06-02T01:11:03.965Z,0
2018-06-02T01:12:13.108Z,0
2018-06-02T01:13:21.973Z,0
2018-06-02T01:14:30.837Z,0
2018-06-02T01:15:39.701Z,0
2018-06-02T01:16:48.568Z,0
2018-06-02T01:17:57.428Z,0
2018-06-02T01:19:06.580Z,0
2018-06-02T01:20:15.721Z,0
2018-06-02T01:21:25.115Z,0
2018-06-02T01:22:34.539Z,0
2018-06-02T01:23:43.403Z,0
2018-06-02T01:24:52.546Z,0
2018-06-02T01:26:01.411Z,0
2018-06-02T01:27:10.655Z,0
2018-06-02T01:28:19.794Z,0
2018-06-02T01:29:28.657Z,0
2018-06-02T01:30:37.519Z,0
2018-06-02T01:31:46.660Z,0
2018-06-02T01:32:55.626Z,0
2018-06-02T01:34:04.776Z,0
2018-06-02T01:35:13.643Z,0
2018-06-02T01:36:23.058Z,0
2018-06-02T01:37:31.924Z,0
2018-06-02T01:38:40.944Z,0
2018-06-02T01:39:49.801Z,0
2018-06-02T01:40:58.664Z,0
2018-06-02T01:42:07.528Z,0
2018-06-02T01:43:16.669Z,0
2018-06-02T01:44:25.883Z,0
2018-06-02T01:45:34.749Z,0
2018-06-02T01:46:43.900Z,0
2018-06-02T01:47:53.045Z,0
2018-06-02T01:49:02.186Z,0
2018-06-02T01:50:11.050Z,0
2018-06-02T01:51:20.467Z,0
2018-06-02T01:52:29.331Z,0
2018-06-02T01:53:38.194Z,0
2018-06-02T01:54:47.058Z,0
2018-06-02T01:55:56.020Z,0
2018-06-02T01:57:05.174Z,0
2018-06-02T01:58:14.040Z,0
2018-06-02T01:59:22.904Z,0
2018-06-02T02:00:31.765Z,0
2018-06-02T02:01:40.629Z,0
2018-06-02T02:02:49.773Z,0
2018-06-02T02:03:58.640Z,0
2018-06-02T02:05:07.500Z,0
2018-06-02T02:06:16.362Z,0
2018-06-02T02:07:25.577Z,0
2018-06-02T02:08:34.993Z,0
2018-06-02T02:09:43.854Z,0
2018-06-02T02:10:52.999Z,0
2018-06-02T02:12:01.875Z,0
2018-06-02T02:13:10.877Z,0
2018-06-02T02:14:19.739Z,0
2018-06-02T02:15:28.600Z,0
2018-06-02T02:16:37.465Z,0
2018-06-02T02:17:46.329Z,0
2018-06-02T02:18:55.238Z,0
2018-06-02T02:20:04.101Z,0
2018-06-02T02:21:12.965Z,0
2018-06-02T02:22:21.829Z,0
2018-06-02T02:23:30.689Z,0
2018-06-02T02:24:39.559Z,0
2018-06-02T02:25:48.698Z,0
2018-06-02T02:26:57.844Z,0
2018-06-02T02:28:06.705Z,0
2018-06-02T02:29:15.845Z,0
2018-06-02T02:30:25.603Z,0
2018-06-02T02:31:34.738Z,0
2018-06-02T02:32:43.607Z,0
2018-06-02T02:33:53.316Z,0
2018-06-02T02:35:02.458Z,0
2018-06-02T02:36:12.220Z,0
2018-06-02T02:37:21.363Z,0
2018-06-02T02:38:30.508Z,0
2018-06-02T02:39:39.651Z,0
2018-06-02T02:40:48.515Z,0
2018-06-02T02:41:57.659Z,0
2018-06-02T02:43:07.089Z,0
2018-06-02T02:44:16.226Z,0
2018-06-02T02:45:25.096Z,0
2018-06-02T02:46:34.235Z,0
2018-06-02T02:47:43.253Z,0
2018-06-02T02:48:52.394Z,0
2018-06-02T02:50:01.259Z,0
2018-06-02T02:51:10.678Z,0
2018-06-02T02:52:19.545Z,0
2018-06-02T02:53:28.463Z,0
2018-06-02T02:54:37.324Z,0
2018-06-02T02:55:46.476Z,0
2018-06-02T02:56:55.635Z,0
2018-06-02T02:58:05.066Z,0
2018-06-02T02:59:14.559Z,0
2018-06-02T03:00:23.703Z,0
2018-06-02T03:01:32.851Z,0
2018-06-02T03:02:41.716Z,0
2018-06-02T03:03:50.859Z,0
2018-06-02T03:04:59.873Z,0
2018-06-02T03:06:09.579Z,0
2018-06-02T03:07:19.005Z,0
2018-06-02T03:08:27.867Z,0
2018-06-02T03:09:36.731Z,0
2018-06-02T03:10:45.594Z,0
2018-06-02T03:11:54.740Z,0
2018-06-02T03:13:03.897Z,0
2018-06-02T03:14:13.038Z,0
2018-06-02T03:15:22.455Z,5
2018-06-02T03:16:31.656Z,0
2018-06-02T03:17:40.794Z,0
2018-06-02T03:18:49.933Z,0
2018-06-02T03:19:58.804Z,5
2018-06-02T03:21:07.950Z,0
2018-06-02T03:22:17.145Z,0
2018-06-02T03:23:26.009Z,0
2018-06-02T03:24:34.880Z,0
2018-06-02T03:25:44.020Z,0
2018-06-02T03:26:52.883Z,0
2018-06-02T03:28:01.799Z,0
2018-06-02T03:29:10.943Z,0
2018-06-02T03:30:20.646Z,0
2018-06-02T03:31:29.789Z,0
2018-06-02T03:32:38.928Z,0
2018-06-02T03:33:47.941Z,0
2018-06-02T03:34:56.811Z,0
2018-06-02T03:36:05.674Z,0
2018-06-02T03:37:14.536Z,0
2018-06-02T03:38:23.399Z,0
2018-06-02T03:39:32.261Z,5
2018-06-02T03:40:41.400Z,5
2018-06-02T03:41:50.546Z,5
2018-06-02T03:42:59.687Z,5
2018-06-02T03:44:08.552Z,5
2018-06-02T03:45:17.572Z,5
2018-06-02T03:46:26.718Z,5
2018-06-02T03:47:36.141Z,10
2018-06-02T03:48:45.281Z,10
2018-06-02T03:49:54.145Z,10
2018-06-02T03:51:03.109Z,10
2018-06-02T03:52:12.255Z,10
2018-06-02T03:53:21.175Z,15
2018-06-02T03:54:30.032Z,15
2018-06-02T03:55:38.899Z,20
2018-06-02T03:56:47.908Z,20
2018-06-02T03:57:56.771Z,15
2018-06-02T03:59:05.634Z,15
2018-06-02T04:00:14.494Z,15
2018-06-02T04:01:23.359Z,15
2018-06-02T04:02:32.580Z,20
2018-06-02T04:03:41.720Z,20
2018-06-02T04:04:50.582Z,20
2018-06-02T04:05:59.445Z,20
2018-06-02T04:07:08.307Z,20
2018-06-02T04:08:17.216Z,25
2018-06-02T04:09:26.359Z,25
2018-06-02T04:10:35.222Z,25
2018-06-02T04:11:44.091Z,25
2018-06-02T04:12:52.944Z,25
2018-06-02T04:14:01.807Z,30
2018-06-02T04:15:10.670Z,30
2018-06-02T04:16:19.533Z,25
2018-06-02T04:17:28.669Z,25
2018-06-02T04:18:37.532Z,25
2018-06-02T04:19:46.645Z,25
2018-06-02T04:20:55.791Z,30
2018-06-02T04:22:04.654Z,30
2018-06-02T04:23:13.514Z,35
2018-06-02T04:24:22.375Z,30
2018-06-02T04:25:31.239Z,25
2018-06-02T04:26:40.381Z,30
2018-06-02T04:27:49.243Z,25
2018-06-02T04:28:58.107Z,25
2018-06-02T04:30:06.969Z,25
2018-06-02T04:31:15.933Z,30
2018-06-02T04:32:24.797Z,30
2018-06-02T04:33:33.658Z,25
2018-06-02T04:34:42.799Z,25
2018-06-02T04:35:51.665Z,25
2018-06-02T04:37:00.918Z,20
2018-06-02T04:38:09.774Z,20
2018-06-02T04:39:18.948Z,20
2018-06-02T04:40:27.812Z,20
2018-06-02T04:41:36.977Z,20
2018-06-02T04:42:46.316Z,25
2018-06-02T04:43:55.182Z,25
2018-06-02T04:45:04.045Z,30
2018-06-02T04:46:12.905Z,35
2018-06-02T04:47:21.767Z,35
2018-06-02T04:48:30.731Z,35
2018-06-02T04:49:39.596Z,35
2018-06-02T04:50:48.736Z,50
2018-06-02T04:51:57.603Z,60
2018-06-02T04:53:06.469Z,40
2018-06-02T04:54:15.382Z,40
2018-06-02T04:55:24.517Z,50
2018-06-02T04:56:33.379Z,50
2018-06-02T04:57:42.525Z,50
2018-06-02T04:58:51.389Z,65
2018-06-02T05:00:00.261Z,65
2018-06-02T05:01:09.400Z,60
2018-06-02T05:02:18.261Z,55
2018-06-02T05:03:27.406Z,60
2018-06-02T05:04:36.547Z,65
2018-06-02T05:05:45.562Z,60
2018-06-02T05:06:54.701Z,60
2018-06-02T05:08:03.564Z,65
2018-06-02T05:09:12.426Z,70
2018-06-02T05:10:21.574Z,55
2018-06-02T05:11:30.686Z,60
2018-06-02T05:12:39.549Z,55
2018-06-02T05:13:48.414Z,60
2018-06-02T05:14:57.556Z,60
2018-06-02T05:16:06.420Z,60
2018-06-02T05:17:15.434Z,65
2018-06-02T05:18:24.573Z,60
2018-06-02T05:19:33.435Z,60
2018-06-02T05:20:42.300Z,65
2018-06-02T05:21:51.168Z,60
2018-06-02T05:23:00.125Z,45
2018-06-02T05:24:08.987Z,45
2018-06-02T05:25:17.852Z,45
2018-06-02T05:26:26.715Z,40
2018-06-02T05:27:35.587Z,40
2018-06-02T05:28:44.547Z,40
2018-06-02T05:29:53.706Z,40
2018-06-02T05:31:02.563Z,40
2018-06-02T05:32:11.696Z,40
2018-06-02T05:33:20.556Z,40
2018-06-02T05:34:29.697Z,40
2018-06-02T05:35:38.560Z,40
2018-06-02T05:36:47.423Z,50
2018-06-02T05:37:56.564Z,50
2018-06-02T05:39:05.425Z,60
2018-06-02T05:40:14.392Z,55
2018-06-02T05:41:23.253Z,55
2018-06-02T05:42:32.398Z,50
2018-06-02T05:43:41.262Z,50
2018-06-02T05:44:50.406Z,60
2018-06-02T05:45:59.455Z,60
2018-06-02T05:47:08.567Z,60
2018-06-02T05:48:17.426Z,60
2018-06-02T05:49:26.571Z,65
2018-06-02T05:50:35.434Z,65
2018-06-02T05:51:44.644Z,65
2018-06-02T05:52:53.512Z,65
2018-06-02T05:54:02.371Z,65
2018-06-02T05:55:11.510Z,60
2018-06-02T05:56:20.376Z,60
2018-06-02T05:57:29.513Z,60
2018-06-02T05:58:38.379Z,55
2018-06-02T05:59:47.842Z,55
2018-06-02T06:00:56.945Z,55
2018-06-02T06:02:05.811Z,55
2018-06-02T06:03:15.002Z,65
2018-06-02T06:04:23.864Z,65
2018-06-02T06:05:32.725Z,70
2018-06-02T06:06:41.591Z,70
2018-06-02T06:07:50.450Z,75
2018-06-02T06:08:59.412Z,80
2018-06-02T06:10:08.279Z,75
2018-06-02T06:11:17.141Z,80
2018-06-02T06:12:26.015Z,85
2018-06-02T06:13:35.151Z,75
2018-06-02T06:14:44.443Z,80
2018-06-02T06:15:53.308Z,85
2018-06-02T06:17:02.169Z,85
2018-06-02T06:18:11.311Z,90
2018-06-02T06:19:20.171Z,85
2018-06-02T06:20:29.320Z,80
2018-06-02T06:21:38.180Z,70
2018-06-02T06:22:47.322Z,75
2018-06-02T06:23:56.185Z,70
2018-06-02T06:25:05.049Z,70
2018-06-02T06:26:14.061Z,75
2018-06-02T06:27:22.921Z,75
2018-06-02T06:28:32.074Z,85
2018-06-02T06:29:40.932Z,70
2018-06-02T06:30:49.795Z,75
2018-06-02T06:31:59.015Z,75
2018-06-02T06:33:08.390Z,85
2018-06-02T06:34:17.193Z,90
2018-06-02T06:35:26.057Z,85
2018-06-02T06:36:34.917Z,95
2018-06-02T06:37:43.833Z,90
2018-06-02T06:38:52.973Z,90
2018-06-02T06:40:01.838Z,85
2018-06-02T06:41:10.705Z,85
2018-06-02T06:42:19.861Z,80
2018-06-02T06:43:28.862Z,80
2018-06-02T06:44:38.152Z,85
2018-06-02T06:45:46.977Z,85
2018-06-02T06:46:56.114Z,85
2018-06-02T06:48:04.979Z,95
2018-06-02T06:49:13.943Z,95
2018-06-02T06:50:22.804Z,100
2018-06-02T06:51:31.669Z,110
2018-06-02T06:52:40.814Z,110
2018-06-02T06:53:49.672Z,110
2018-06-02T06:54:58.535Z,110
2018-06-02T06:56:07.395Z,110
2018-06-02T06:57:16.539Z,110
2018-06-02T06:58:25.688Z,110
2018-06-02T06:59:34.827Z,115
2018-06-02T07:00:43.789Z,110
2018-06-02T07:01:52.653Z,120
2018-06-02T07:03:01.520Z,125
2018-06-02T07:04:10.663Z,135
2018-06-02T07:05:19.802Z,130
2018-06-02T07:06:28.916Z,135
2018-06-02T07:07:37.779Z,140
2018-06-02T07:08:46.639Z,125
2018-06-02T07:09:55.502Z,125
2018-06-02T07:11:04.366Z,120
2018-06-02T07:12:14.169Z,115
2018-06-02T07:13:23.316Z,125
2018-06-02T07:14:32.506Z,130
2018-06-02T07:15:41.711Z,125
2018-06-02T07:16:50.543Z,135
2018-06-02T07:17:59.405Z,125
2018-06-02T07:19:08.552Z,125
2018-06-02T07:20:17.417Z,120
2018-06-02T07:21:26.277Z,110
2018-06-02T07:22:35.847Z,120
2018-06-02T07:23:44.766Z,130
2018-06-02T07:24:54.299Z,130
2018-06-02T07:26:03.100Z,125
2018-06-02T07:27:11.965Z,130
2018-06-02T07:28:20.830Z,145
2018-06-02T07:29:29.792Z,150
2018-06-02T07:30:38.654Z,145
2018-06-02T07:31:47.796Z,165
2018-06-02T07:32:56.657Z,235
2018-06-02T07:34:05.521Z,290
2018-06-02T07:35:14.506Z,315
2018-06-02T07:36:23.368Z,325
2018-06-02T07:37:32.511Z,345
2018-06-02T07:38:41.650Z,320
2018-06-02T07:39:50.511Z,290
2018-06-02T07:40:59.656Z,260
2018-06-02T07:42:08.518Z,230
2018-06-02T07:43:17.933Z,220
2018-06-02T07:44:27.172Z,230
2018-06-02T07:45:36.038Z,265
2018-06-02T07:46:44.905Z,275
2018-06-02T07:47:54.048Z,290
2018-06-02T07:49:03.201Z,295
2018-06-02T07:50:12.845Z,295
2018-06-02T07:51:21.706Z,285
2018-06-02T07:52:30.857Z,305
2018-06-02T07:53:39.712Z,330
2018-06-02T07:54:48.578Z,345
2018-06-02T07:55:57.443Z,345
2018-06-02T07:57:06.306Z,350
2018-06-02T07:58:15.171Z,345
2018-06-02T07:59:24.318Z,355
2018-06-02T08:00:33.535Z,415
2018-06-02T08:01:42.396Z,515
2018-06-02T08:02:51.274Z,395
2018-06-02T08:04:00.143Z,360
2018-06-02T08:05:09.004Z,355
2018-06-02T08:06:17.902Z,360
2018-06-02T08:07:26.779Z,295
2018-06-02T08:08:35.677Z,300
2018-06-02T08:09:44.514Z,300
2018-06-02T08:10:53.381Z,340
2018-06-02T08:12:02.408Z,285
2018-06-02T08:13:11.559Z,220
2018-06-02T08:14:20.423Z,250
2018-06-02T08:15:29.287Z,265
2018-06-02T08:16:38.434Z,305
2018-06-02T08:17:47.299Z,380
2018-06-02T08:18:56.297Z,405
2018-06-02T08:20:05.261Z,340
2018-06-02T08:21:14.418Z,285
2018-06-02T08:22:23.558Z,285
2018-06-02T08:23:33.076Z,335
2018-06-02T08:24:41.953Z,310
2018-06-02T08:25:50.820Z,315
2018-06-02T08:26:59.689Z,325
2018-06-02T08:28:08.557Z,325
2018-06-02T08:29:17.474Z,390
2018-06-02T08:30:26.344Z,355
2018-06-02T08:31:35.203Z,355
2018-06-02T08:32:44.065Z,325
2018-06-02T08:33:52.928Z,330
2018-06-02T08:35:02.294Z,305
2018-06-02T08:36:11.158Z,295
2018-06-02T08:37:20.023Z,265
2018-06-02T08:38:28.885Z,300
2018-06-02T08:39:37.773Z,290
2018-06-02T08:40:46.704Z,290
2018-06-02T08:41:55.572Z,280
2018-06-02T08:43:04.462Z,245
2018-06-02T08:44:13.890Z,225
2018-06-02T08:45:23.032Z,240
2018-06-02T08:46:31.998Z,260
2018-06-02T08:47:41.086Z,270
2018-06-02T08:48:49.956Z,275
2018-06-02T08:49:58.816Z,280
2018-06-02T08:51:07.682Z,285
2018-06-02T08:52:16.543Z,290
2018-06-02T08:53:25.408Z,320
2018-06-02T08:54:34.276Z,280
2018-06-02T08:55:43.142Z,210
2018-06-02T08:56:52.007Z,195
2018-06-02T08:58:00.873Z,215
2018-06-02T08:59:10.014Z,215
2018-06-02T09:00:19.201Z,215
2018-06-02T09:01:28.023Z,225
2018-06-02T09:02:36.887Z,215
2018-06-02T09:03:45.901Z,205
2018-06-02T09:04:54.767Z,195
2018-06-02T09:06:03.910Z,200
2018-06-02T09:07:12.770Z,215
2018-06-02T09:08:21.634Z,215
2018-06-02T09:09:30.599Z,230
2018-06-02T09:10:39.750Z,215
2018-06-02T09:11:48.614Z,225
2018-06-02T09:12:57.479Z,235
2018-06-02T09:14:06.625Z,230
2018-06-02T09:15:15.490Z,235
2018-06-02T09:16:24.349Z,235
2018-06-02T09:17:33.214Z,240
2018-06-02T09:18:42.078Z,250
2018-06-02T09:19:50.945Z,230
2018-06-02T09:20:59.911Z,225
2018-06-02T09:22:09.050Z,205
2018-06-02T09:23:17.915Z,240
2018-06-02T09:24:26.779Z,250
2018-06-02T09:25:35.648Z,240
2018-06-02T09:26:44.838Z,235
2018-06-02T09:27:54.087Z,245
2018-06-02T09:29:02.893Z,230
2018-06-02T09:30:11.763Z,255
2018-06-02T09:31:20.625Z,265
2018-06-02T09:32:29.870Z,270
2018-06-02T09:33:39.080Z,265
2018-06-02T09:34:47.944Z,245
2018-06-02T09:35:57.093Z,235
2018-06-02T09:37:05.995Z,215
2018-06-02T09:38:15.761Z,225
2018-06-02T09:39:24.755Z,320
2018-06-02T09:40:33.725Z,350
2018-06-02T09:41:42.889Z,340
2018-06-02T09:42:51.762Z,330
2018-06-02T09:44:00.694Z,310
2018-06-02T09:45:09.567Z,255
2018-06-02T09:46:18.431Z,220
2018-06-02T09:47:27.672Z,220
2018-06-02T09:48:36.898Z,230
2018-06-02T09:49:45.865Z,235
2018-06-02T09:50:54.759Z,250
2018-06-02T09:52:03.650Z,235
2018-06-02T09:53:12.513Z,225
2018-06-02T09:54:21.379Z,240
2018-06-02T09:55:30.580Z,285
2018-06-02T09:56:39.445Z,310
2018-06-02T09:57:48.404Z,335
2018-06-02T09:58:57.450Z,370
2018-06-02T10:00:06.326Z,325
2018-06-02T10:01:15.472Z,325
2018-06-02T10:02:24.334Z,285
2018-06-02T10:03:33.477Z,270
2018-06-02T10:04:42.363Z,260
2018-06-02T10:05:51.205Z,280
2018-06-02T10:07:00.349Z,330
2018-06-02T10:08:09.239Z,365
2018-06-02T10:09:18.104Z,375
2018-06-02T10:10:27.016Z,390
2018-06-02T10:11:36.114Z,415
2018-06-02T10:12:44.977Z,440
2018-06-02T10:13:53.853Z,500
2018-06-02T10:15:02.709Z,445
2018-06-02T10:16:11.860Z,375
2018-06-02T10:17:21.041Z,345
2018-06-02T10:18:29.867Z,360
2018-06-02T10:19:39.026Z,380
2018-06-02T10:20:47.892Z,365
2018-06-02T10:21:56.757Z,360
2018-06-02T10:23:05.635Z,345
2018-06-02T10:24:14.510Z,365
2018-06-02T10:25:23.467Z,380
2018-06-02T10:26:32.415Z,405
2018-06-02T10:27:41.291Z,395
2018-06-02T10:28:50.156Z,410
2018-06-02T10:29:59.030Z,445
2018-06-02T10:31:08.172Z,475
2018-06-02T10:32:17.189Z,390
2018-06-02T10:33:26.333Z,365
2018-06-02T10:34:35.200Z,375
2018-06-02T10:35:44.093Z,445
2018-06-02T10:36:52.929Z,485
2018-06-02T10:38:02.167Z,465
2018-06-02T10:39:11.310Z,450
2018-06-02T10:40:20.174Z,340
2018-06-02T10:41:29.039Z,410
2018-06-02T10:42:37.903Z,620
2018-06-02T10:43:46.820Z,735
2018-06-02T10:44:55.686Z,705
2018-06-02T10:46:04.547Z,555
2018-06-02T10:47:13.411Z,545
2018-06-02T10:48:22.277Z,420
2018-06-02T10:49:31.850Z,485
2018-06-02T10:50:40.998Z,410
2018-06-02T10:51:49.865Z,310
2018-06-02T10:52:58.731Z,270
2018-06-02T10:54:07.597Z,310
2018-06-02T10:55:16.616Z,335
2018-06-02T10:56:25.764Z,310
2018-06-02T10:57:34.631Z,310
2018-06-02T10:58:43.500Z,285
2018-06-02T10:59:52.646Z,265
2018-06-02T11:01:02.318Z,285
2018-06-02T11:02:11.741Z,265
2018-06-02T11:03:20.889Z,235
2018-06-02T11:04:29.747Z,240
2018-06-02T11:05:38.899Z,240
2018-06-02T11:06:48.322Z,285
2018-06-02T11:07:57.187Z,330
2018-06-02T11:09:06.103Z,375
2018-06-02T11:10:15.197Z,330
2018-06-02T11:11:24.347Z,310
2018-06-02T11:12:33.563Z,360
2018-06-02T11:13:42.448Z,330
2018-06-02T11:14:51.322Z,365
2018-06-02T11:16:00.181Z,320
2018-06-02T11:17:09.044Z,305
2018-06-02T11:18:18.359Z,285
2018-06-02T11:19:27.230Z,300
2018-06-02T11:20:36.093Z,305
2018-06-02T11:21:44.967Z,325
2018-06-02T11:22:54.106Z,315
2018-06-02T11:24:03.120Z,350
2018-06-02T11:25:11.987Z,380
2018-06-02T11:26:20.854Z,385
2018-06-02T11:27:30.006Z,385
2018-06-02T11:28:38.869Z,355
2018-06-02T11:29:48.086Z,405
2018-06-02T11:30:56.952Z,370
2018-06-02T11:32:06.099Z,355
2018-06-02T11:33:14.963Z,365
2018-06-02T11:34:23.825Z,310
2018-06-02T11:35:32.740Z,270
2018-06-02T11:36:41.602Z,265
2018-06-02T11:37:50.465Z,300
2018-06-02T11:38:59.613Z,345
2018-06-02T11:40:08.758Z,360
2018-06-02T11:41:17.621Z,390
2018-06-02T11:42:26.768Z,380
2018-06-02T11:43:35.632Z,370
2018-06-02T11:44:44.500Z,365
2018-06-02T11:45:53.366Z,335
2018-06-02T11:47:02.230Z,255
2018-06-02T11:48:11.091Z,230
2018-06-02T11:49:19.956Z,255
2018-06-02T11:50:28.822Z,300
2018-06-02T11:51:38.300Z,265
2018-06-02T11:52:47.163Z,290
2018-06-02T11:53:56.024Z,380
2018-06-02T11:55:05.170Z,350
2018-06-02T11:56:14.038Z,360
2018-06-02T11:57:22.908Z,385
2018-06-02T11:58:31.824Z,345
2018-06-02T11:59:40.730Z,490
2018-06-02T12:00:49.835Z,510
2018-06-02T12:01:58.705Z,535
2018-06-02T12:03:07.854Z,470
2018-06-02T12:04:16.812Z,465
2018-06-02T12:05:25.674Z,420
2018-06-02T12:06:34.817Z,420
2018-06-02T12:07:43.682Z,450
2018-06-02T12:08:52.550Z,490
2018-06-02T12:10:01.521Z,435
2018-06-02T12:11:10.382Z,375
2018-06-02T12:12:19.252Z,395
2018-06-02T12:13:28.109Z,330
2018-06-02T12:14:36.976Z,290
2018-06-02T12:15:46.038Z,250
2018-06-02T12:16:54.905Z,245
2018-06-02T12:18:04.051Z,275
2018-06-02T12:19:12.919Z,290
2018-06-02T12:20:21.790Z,290
2018-06-02T12:21:31.087Z,320
2018-06-02T12:22:40.514Z,370
2018-06-02T12:23:49.954Z,335
2018-06-02T12:24:58.818Z,330
2018-06-02T12:26:07.680Z,300
2018-06-02T12:27:16.795Z,305
2018-06-02T12:28:25.688Z,270
2018-06-02T12:29:34.524Z,250
2018-06-02T12:30:43.386Z,260
2018-06-02T12:31:52.253Z,250
2018-06-02T12:33:01.169Z,235
2018-06-02T12:34:10.867Z,220
2018-06-02T12:35:19.733Z,210
2018-06-02T12:36:28.599Z,230
2018-06-02T12:37:37.465Z,215
2018-06-02T12:38:46.428Z,210
2018-06-02T12:39:55.301Z,205
2018-06-02T12:41:04.157Z,205
2018-06-02T12:42:13.021Z,215
2018-06-02T12:43:21.882Z,250
2018-06-02T12:44:30.751Z,325
2018-06-02T12:45:39.608Z,325
2018-06-02T12:46:48.472Z,380
2018-06-02T12:47:57.336Z,380
2018-06-02T12:49:06.198Z,350
2018-06-02T12:50:15.265Z,325
2018-06-02T12:51:24.143Z,295
2018-06-02T12:52:32.995Z,315
2018-06-02T12:53:41.859Z,285
2018-06-02T12:54:50.724Z,255
2018-06-02T12:55:59.912Z,235
2018-06-02T12:57:09.053Z,225
2018-06-02T12:58:18.199Z,210
2018-06-02T12:59:27.068Z,200
2018-06-02T13:00:35.932Z,200
2018-06-02T13:01:44.894Z,200
2018-06-02T13:02:53.761Z,195
2018-06-02T13:04:02.901Z,185
2018-06-02T13:05:12.041Z,180
2018-06-02T13:06:20.905Z,190
2018-06-02T13:07:29.773Z,210
2018-06-02T13:08:38.633Z,220
2018-06-02T13:09:47.498Z,205
2018-06-02T13:10:56.359Z,195
2018-06-02T13:12:05.224Z,220
2018-06-02T13:13:14.526Z,300
2018-06-02T13:14:23.387Z,425
2018-06-02T13:15:32.251Z,485
2018-06-02T13:16:41.113Z,325
2018-06-02T13:17:49.977Z,275
2018-06-02T13:18:58.942Z,245
2018-06-02T13:20:07.806Z,205
2018-06-02T13:21:17.305Z,180
2018-06-02T13:22:26.162Z,170
2018-06-02T13:23:35.026Z,180
2018-06-02T13:24:44.051Z,190
2018-06-02T13:25:53.190Z,190
2018-06-02T13:27:02.052Z,185
2018-06-02T13:28:10.916Z,185
2018-06-02T13:29:20.068Z,220
2018-06-02T13:30:29.213Z,255
2018-06-02T13:31:38.076Z,275
2018-06-02T13:32:46.940Z,330
2018-06-02T13:33:55.805Z,390
2018-06-02T13:35:04.672Z,340
2018-06-02T13:36:13.780Z,315
2018-06-02T13:37:22.645Z,305
2018-06-02T13:38:31.786Z,285
2018-06-02T13:39:40.650Z,270
2018-06-02T13:40:49.518Z,240
2018-06-02T13:41:58.910Z,200
2018-06-02T13:43:08.138Z,175
2018-06-02T13:44:17.340Z,150
2018-06-02T13:45:26.206Z,155
2018-06-02T13:46:35.072Z,180
2018-06-02T13:47:44.308Z,180
2018-06-02T13:48:53.172Z,180
2018-06-02T13:50:02.039Z,160
2018-06-02T13:51:10.902Z,140
2018-06-02T13:52:20.048Z,130
2018-06-02T13:53:29.062Z,115
2018-06-02T13:54:37.925Z,115
2018-06-02T13:55:46.789Z,115
2018-06-02T13:56:55.653Z,110
2018-06-02T13:58:04.514Z,120
2018-06-02T13:59:13.380Z,115
2018-06-02T14:00:22.247Z,125
2018-06-02T14:01:31.110Z,115
2018-06-02T14:02:39.972Z,115
2018-06-02T14:03:48.835Z,115
2018-06-02T14:04:57.703Z,115
2018-06-02T14:06:06.842Z,120
2018-06-02T14:07:15.712Z,100
2018-06-02T14:08:25.156Z,90
2018-06-02T14:09:34.021Z,85
2018-06-02T14:10:42.942Z,85
2018-06-02T14:11:51.803Z,85
2018-06-02T14:13:00.953Z,90
2018-06-02T14:14:10.108Z,95
2018-06-02T14:15:18.980Z,95
2018-06-02T14:16:27.885Z,90
2018-06-02T14:17:36.747Z,90
2018-06-02T14:18:45.980Z,110
2018-06-02T14:19:54.819Z,105
2018-06-02T14:21:03.686Z,95
2018-06-02T14:22:13.262Z,100
2018-06-02T14:23:22.119Z,105
2018-06-02T14:24:30.983Z,110
2018-06-02T14:25:39.868Z,110
2018-06-02T14:26:48.724Z,110
2018-06-02T14:27:58.029Z,115
2018-06-02T14:29:07.179Z,120
2018-06-02T14:30:16.040Z,125
2018-06-02T14:31:24.906Z,125
2018-06-02T14:32:33.765Z,130
2018-06-02T14:33:42.729Z,140
2018-06-02T14:34:51.868Z,145
2018-06-02T14:36:00.735Z,150
2018-06-02T14:37:09.628Z,155
2018-06-02T14:38:18.881Z,175
2018-06-02T14:39:27.842Z,185
2018-06-02T14:40:36.708Z,195
2018-06-02T14:41:45.571Z,200
2018-06-02T14:42:54.433Z,180
2018-06-02T14:44:03.582Z,185
2018-06-02T14:45:12.553Z,205
2018-06-02T14:46:21.416Z,205
2018-06-02T14:47:30.282Z,195
2018-06-02T14:48:39.424Z,180
2018-06-02T14:49:48.290Z,170
2018-06-02T14:50:57.585Z,165
2018-06-02T14:52:06.725Z,160
2018-06-02T14:53:15.591Z,160
2018-06-02T14:54:24.456Z,155
2018-06-02T14:55:33.322Z,150
2018-06-02T14:56:42.664Z,140
2018-06-02T14:57:51.812Z,135
2018-06-02T14:59:00.958Z,140
2018-06-02T15:00:09.827Z,135
2018-06-02T15:01:18.698Z,125
2018-06-02T15:02:27.913Z,115
2018-06-02T15:03:37.061Z,110
2018-06-02T15:04:45.926Z,110
2018-06-02T15:05:54.791Z,105
2018-06-02T15:07:03.933Z,100
2018-06-02T15:08:12.893Z,95
2018-06-02T15:09:21.758Z,95
2018-06-02T15:10:30.908Z,90
2018-06-02T15:11:40.333Z,85
2018-06-02T15:12:49.757Z,75
2018-06-02T15:13:58.996Z,70
2018-06-02T15:15:08.140Z,65
2018-06-02T15:16:17.289Z,65
2018-06-02T15:17:26.162Z,65
2018-06-02T15:18:35.301Z,65
2018-06-02T15:19:44.366Z,70
2018-06-02T15:20:53.505Z,75
2018-06-02T15:22:02.370Z,75
2018-06-02T15:23:11.515Z,70
2018-06-02T15:24:20.658Z,65
2018-06-02T15:25:29.523Z,60
2018-06-02T15:26:38.388Z,55
2018-06-02T15:27:47.531Z,50
2018-06-02T15:28:57.656Z,45
2018-06-02T15:30:06.799Z,45
2018-06-02T15:31:15.781Z,45
2018-06-02T15:32:24.688Z,45
2018-06-02T15:33:33.553Z,45
2018-06-02T15:34:42.418Z,45
2018-06-02T15:35:51.836Z,45
2018-06-02T15:37:00.774Z,45
2018-06-02T15:38:09.637Z,40
2018-06-02T15:39:18.511Z,45
2018-06-02T15:40:27.646Z,50
2018-06-02T15:41:36.511Z,55
2018-06-02T15:42:45.530Z,60
2018-06-02T15:43:54.392Z,65
2018-06-02T15:45:03.272Z,65
2018-06-02T15:46:12.122Z,70
2018-06-02T15:47:20.987Z,70
2018-06-02T15:48:30.203Z,75
2018-06-02T15:49:39.077Z,75
2018-06-02T15:50:47.942Z,70
2018-06-02T15:51:56.807Z,70
2018-06-02T15:53:05.955Z,70
2018-06-02T15:54:14.819Z,70
2018-06-02T15:55:23.965Z,70
2018-06-02T15:56:32.828Z,65
2018-06-02T15:57:41.693Z,65
2018-06-02T15:58:50.554Z,65
2018-06-02T15:59:59.748Z,70
2018-06-02T16:01:08.890Z,70
2018-06-02T16:02:17.759Z,70
2018-06-02T16:03:26.629Z,70
2018-06-02T16:04:35.824Z,70
2018-06-02T16:05:44.789Z,75
2018-06-02T16:06:53.656Z,75
2018-06-02T16:08:02.795Z,75
2018-06-02T16:09:11.665Z,70
2018-06-02T16:10:20.520Z,70
2018-06-02T16:11:29.583Z,75
2018-06-02T16:12:38.446Z,75
2018-06-02T16:13:47.584Z,75
2018-06-02T16:14:56.449Z,75